sensor_id;sensor_type;location;lat;lon;timestamp;pressure;altitude;pressure_sealevel;temperature;humidity
55932;BME280;41837;55.700;37.984;2022-12-22T00:01:09;99262.19;;;0.75;100.00
55932;BME280;41837;55.700;37.984;2022-12-22T00:03:56;99262.06;;;0.84;100.00
55932;BME280;41837;55.700;37.984;2022-12-22T00:06:41;99252.78;;;0.71;100.00
55932;BME280;41837;55.700;37.984;2022-12-22T00:09:26;99252.72;;;0.77;100.00
55932;BME280;41837;55.700;37.984;2022-12-22T00:12:11;99254.53;;;0.67;100.00
55932;BME280;41837;55.700;37.984;2022-12-22T00:14:57;99252.00;;;0.64;100.00
55932;BME280;41837;55.700;37.984;2022-12-22T00:17:42;99256.59;;;0.36;100.00
55932;BME280;41837;55.700;37.984;2022-12-22T00:20:27;99255.44;;;0.65;100.00
55932;BME280;41837;55.700;37.984;2022-12-22T00:23:11;99259.00;;;0.51;100.00
55932;BME280;41837;55.700;37.984;2022-12-22T00:25:57;99252.19;;;0.47;100.00
55932;BME280;41837;55.700;37.984;2022-12-22T00:28:42;99252.09;;;0.57;100.00
55932;BME280;41837;55.700;37.984;2022-12-22T00:31:28;99246.16;;;0.50;100.00
55932;BME280;41837;55.700;37.984;2022-12-22T00:34:19;99242.81;;;0.43;100.00
55932;BME280;41837;55.700;37.984;2022-12-22T00:37:04;99236.03;;;0.36;100.00
55932;BME280;41837;55.700;37.984;2022-12-22T00:39:48;99244.41;;;0.55;100.00
55932;BME280;41837;55.700;37.984;2022-12-22T00:42:34;99243.56;;;0.53;100.00
55932;BME280;41837;55.700;37.984;2022-12-22T00:45:19;99238.41;;;0.54;100.00
55932;BME280;41837;55.700;37.984;2022-12-22T00:48:04;99229.75;;;0.63;100.00
55932;BME280;41837;55.700;37.984;2022-12-22T00:50:49;99235.84;;;0.54;100.00
55932;BME280;41837;55.700;37.984;2022-12-22T00:53:33;99230.75;;;0.48;100.00
55932;BME280;41837;55.700;37.984;2022-12-22T00:56:18;99233.16;;;0.64;100.00
55932;BME280;41837;55.700;37.984;2022-12-22T00:59:02;99207.66;;;0.42;100.00
55932;BME280;41837;55.700;37.984;2022-12-22T01:01:47;99233.94;;;0.70;100.00
55932;BME280;41837;55.700;37.984;2022-12-22T01:04:31;99224.88;;;0.34;100.00
55932;BME280;41837;55.700;37.984;2022-12-22T01:07:16;99222.94;;;0.56;100.00
55932;BME280;41837;55.700;37.984;2022-12-22T01:10:02;99222.13;;;0.52;100.00
55932;BME280;41837;55.700;37.984;2022-12-22T01:12:47;99211.75;;;0.60;100.00
55932;BME280;41837;55.700;37.984;2022-12-22T01:15:32;99219.56;;;0.51;100.00
55932;BME280;41837;55.700;37.984;2022-12-22T01:18:16;99210.13;;;0.53;100.00
55932;BME280;41837;55.700;37.984;2022-12-22T01:21:02;99205.75;;;0.61;100.00
55932;BME280;41837;55.700;37.984;2022-12-22T01:23:46;99209.09;;;0.68;100.00
55932;BME280;41837;55.700;37.984;2022-12-22T01:26:31;99203.22;;;0.57;100.00
55932;BME280;41837;55.700;37.984;2022-12-22T01:29:15;99195.56;;;0.50;100.00
55932;BME280;41837;55.700;37.984;2022-12-22T01:32:00;99195.31;;;0.75;100.00
55932;BME280;41837;55.700;37.984;2022-12-22T01:34:46;99196.97;;;0.76;100.00
55932;BME280;41837;55.700;37.984;2022-12-22T01:37:30;99193.66;;;0.68;100.00
55932;BME280;41837;55.700;37.984;2022-12-22T01:40:21;99194.59;;;0.62;100.00
55932;BME280;41837;55.700;37.984;2022-12-22T01:43:20;99191.31;;;0.48;100.00
55932;BME280;41837;55.700;37.984;2022-12-22T01:49:12;99185.09;;;0.66;100.00
55932;BME280;41837;55.700;37.984;2022-12-22T01:51:59;99171.38;;;0.67;100.00
55932;BME280;41837;55.700;37.984;2022-12-22T01:54:44;99175.63;;;0.68;100.00
55932;BME280;41837;55.700;37.984;2022-12-22T01:57:30;99178.22;;;0.68;100.00
55932;BME280;41837;55.700;37.984;2022-12-22T02:00:15;99186.81;;;0.68;100.00
55932;BME280;41837;55.700;37.984;2022-12-22T02:03:00;99183.47;;;0.60;100.00
55932;BME280;41837;55.700;37.984;2022-12-22T02:05:50;99175.53;;;0.79;100.00
55932;BME280;41837;55.700;37.984;2022-12-22T02:08:40;99168.75;;;0.71;100.00
55932;BME280;41837;55.700;37.984;2022-12-22T02:11:42;99172.00;;;0.86;100.00
55932;BME280;41837;55.700;37.984;2022-12-22T02:14:39;99168.56;;;0.88;100.00
55932;BME280;41837;55.700;37.984;2022-12-22T02:17:30;99169.53;;;0.78;100.00
55932;BME280;41837;55.700;37.984;2022-12-22T02:26:12;99165.25;;;0.77;100.00
55932;BME280;41837;55.700;37.984;2022-12-22T02:29:00;99166.03;;;0.84;100.00
55932;BME280;41837;55.700;37.984;2022-12-22T02:31:45;99160.75;;;0.91;100.00
55932;BME280;41837;55.700;37.984;2022-12-22T02:34:29;99166.00;;;0.85;100.00
55932;BME280;41837;55.700;37.984;2022-12-22T02:40:20;99159.19;;;0.81;100.00
55932;BME280;41837;55.700;37.984;2022-12-22T02:43:13;99158.28;;;0.87;100.00
55932;BME280;41837;55.700;37.984;2022-12-22T02:52:13;99151.31;;;0.95;100.00
55932;BME280;41837;55.700;37.984;2022-12-22T02:54:59;99149.69;;;0.86;100.00
55932;BME280;41837;55.700;37.984;2022-12-22T02:57:44;99154.75;;;0.94;100.00
55932;BME280;41837;55.700;37.984;2022-12-22T03:00:28;99158.97;;;0.97;100.00
55932;BME280;41837;55.700;37.984;2022-12-22T03:03:13;99154.75;;;0.94;100.00
55932;BME280;41837;55.700;37.984;2022-12-22T03:05:58;99154.69;;;0.99;100.00
55932;BME280;41837;55.700;37.984;2022-12-22T03:08:43;99162.47;;;0.94;100.00
55932;BME280;41837;55.700;37.984;2022-12-22T03:11:27;99156.44;;;0.95;100.00
55932;BME280;41837;55.700;37.984;2022-12-22T03:14:12;99155.44;;;1.05;100.00
55932;BME280;41837;55.700;37.984;2022-12-22T03:16:57;99154.63;;;1.02;100.00
55932;BME280;41837;55.700;37.984;2022-12-22T03:19:41;99153.75;;;1.03;100.00
55932;BME280;41837;55.700;37.984;2022-12-22T03:22:26;99158.91;;;1.03;100.00
55932;BME280;41837;55.700;37.984;2022-12-22T03:25:12;99152.00;;;1.06;100.00
55932;BME280;41837;55.700;37.984;2022-12-22T03:28:01;99147.88;;;0.93;100.00
55932;BME280;41837;55.700;37.984;2022-12-22T03:30:28;99152.91;;;1.02;100.00
55932;BME280;41837;55.700;37.984;2022-12-22T03:32:53;99147.81;;;0.98;100.00
55932;BME280;41837;55.700;37.984;2022-12-22T03:35:19;99145.94;;;1.10;100.00
55932;BME280;41837;55.700;37.984;2022-12-22T03:37:45;99139.03;;;1.13;100.00
55932;BME280;41837;55.700;37.984;2022-12-22T03:40:11;99130.50;;;1.09;100.00
55932;BME280;41837;55.700;37.984;2022-12-22T03:42:37;99133.09;;;1.09;100.00
55932;BME280;41837;55.700;37.984;2022-12-22T03:45:21;99137.44;;;1.05;100.00
55932;BME280;41837;55.700;37.984;2022-12-22T03:48:06;99136.44;;;1.14;100.00
55932;BME280;41837;55.700;37.984;2022-12-22T03:50:32;99138.25;;;1.07;100.00
55932;BME280;41837;55.700;37.984;2022-12-22T03:52:59;99139.81;;;1.19;100.00
55932;BME280;41837;55.700;37.984;2022-12-22T03:55:25;99131.34;;;1.11;100.00
55932;BME280;41837;55.700;37.984;2022-12-22T03:57:50;99138.09;;;1.18;100.00
55932;BME280;41837;55.700;37.984;2022-12-22T04:00:16;99134.56;;;1.24;100.00
55932;BME280;41837;55.700;37.984;2022-12-22T04:02:42;99141.41;;;1.26;100.00
55932;BME280;41837;55.700;37.984;2022-12-22T04:05:08;99137.25;;;1.18;100.00
55932;BME280;41837;55.700;37.984;2022-12-22T04:07:34;99137.22;;;1.21;100.00
55932;BME280;41837;55.700;37.984;2022-12-22T04:10:01;99140.63;;;1.21;100.00
55932;BME280;41837;55.700;37.984;2022-12-22T04:12:46;99137.25;;;1.18;100.00
55932;BME280;41837;55.700;37.984;2022-12-22T04:15:22;99137.38;;;1.07;100.00
55932;BME280;41837;55.700;37.984;2022-12-22T04:17:48;99137.31;;;1.11;100.00
55932;BME280;41837;55.700;37.984;2022-12-22T04:20:15;99133.84;;;1.17;100.00
55932;BME280;41837;55.700;37.984;2022-12-22T04:22:41;99136.47;;;1.11;100.00
55932;BME280;41837;55.700;37.984;2022-12-22T04:25:08;99131.19;;;1.20;100.00
55932;BME280;41837;55.700;37.984;2022-12-22T04:27:34;99133.94;;;1.08;100.00
55932;BME280;41837;55.700;37.984;2022-12-22T04:30:01;99133.06;;;1.10;100.00
55932;BME280;41837;55.700;37.984;2022-12-22T04:32:28;99134.91;;;1.01;100.00
55932;BME280;41837;55.700;37.984;2022-12-22T04:34:54;99124.44;;;1.13;100.00
55932;BME280;41837;55.700;37.984;2022-12-22T04:37:20;99136.59;;;1.03;100.00
55932;BME280;41837;55.700;37.984;2022-12-22T04:39:45;99127.16;;;1.04;100.00
55932;BME280;41837;55.700;37.984;2022-12-22T04:42:12;99134.78;;;1.10;100.00
55932;BME280;41837;55.700;37.984;2022-12-22T04:44:38;99131.38;;;1.08;100.00
55932;BME280;41837;55.700;37.984;2022-12-22T04:47:04;99132.91;;;1.21;100.00
55932;BME280;41837;55.700;37.984;2022-12-22T04:49:30;99135.56;;;1.15;100.00
55932;BME280;41837;55.700;37.984;2022-12-22T04:51:56;99135.66;;;1.10;100.00
55932;BME280;41837;55.700;37.984;2022-12-22T04:54:23;99134.72;;;1.15;100.00
55932;BME280;41837;55.700;37.984;2022-12-22T04:56:50;99131.22;;;1.19;100.00
55932;BME280;41837;55.700;37.984;2022-12-22T04:59:16;99142.34;;;1.22;100.00
55932;BME280;41837;55.700;37.984;2022-12-22T05:01:42;99137.25;;;1.18;100.00
55932;BME280;41837;55.700;37.984;2022-12-22T05:04:08;99133.03;;;1.12;100.00
55932;BME280;41837;55.700;37.984;2022-12-22T05:06:35;99141.31;;;1.33;100.00
55932;BME280;41837;55.700;37.984;2022-12-22T05:09:04;99143.00;;;1.34;100.00
55932;BME280;41837;55.700;37.984;2022-12-22T05:11:31;99134.66;;;1.19;100.00
55932;BME280;41837;55.700;37.984;2022-12-22T05:13:56;99147.50;;;1.22;100.00
55932;BME280;41837;55.700;37.984;2022-12-22T05:16:23;99151.72;;;1.25;100.00
55932;BME280;41837;55.700;37.984;2022-12-22T05:18:48;99154.25;;;1.28;100.00
55932;BME280;41837;55.700;37.984;2022-12-22T05:21:16;99152.47;;;1.33;100.00
55932;BME280;41837;55.700;37.984;2022-12-22T05:23:43;99151.78;;;1.20;100.00
55932;BME280;41837;55.700;37.984;2022-12-22T05:26:09;99146.56;;;1.25;100.00
55932;BME280;41837;55.700;37.984;2022-12-22T05:28:36;99155.91;;;1.30;100.00
55932;BME280;41837;55.700;37.984;2022-12-22T05:31:06;99168.13;;;1.19;100.00
55932;BME280;41837;55.700;37.984;2022-12-22T05:33:33;99171.38;;;1.30;100.00
55932;BME280;41837;55.700;37.984;2022-12-22T05:35:59;99166.38;;;1.21;100.00
55932;BME280;41837;55.700;37.984;2022-12-22T05:38:25;99173.16;;;1.27;100.00
55932;BME280;41837;55.700;37.984;2022-12-22T05:40:51;99168.81;;;1.30;100.00
55932;BME280;41837;55.700;37.984;2022-12-22T05:43:18;99166.91;;;1.43;100.00
55932;BME280;41837;55.700;37.984;2022-12-22T05:45:43;99170.59;;;1.25;100.00
55932;BME280;41837;55.700;37.984;2022-12-22T05:48:10;99164.53;;;1.29;100.00
55932;BME280;41837;55.700;37.984;2022-12-22T05:50:36;99168.16;;;1.16;100.00
55932;BME280;41837;55.700;37.984;2022-12-22T05:53:03;99168.03;;;1.24;100.00
55932;BME280;41837;55.700;37.984;2022-12-22T05:55:30;99175.50;;;1.41;100.00
55932;BME280;41837;55.700;37.984;2022-12-22T05:57:56;99180.63;;;1.44;100.00
55932;BME280;41837;55.700;37.984;2022-12-22T06:00:22;99180.78;;;1.33;100.00
55932;BME280;41837;55.700;37.984;2022-12-22T06:02:48;99182.19;;;1.53;100.00
55932;BME280;41837;55.700;37.984;2022-12-22T06:05:15;99179.09;;;1.30;100.00
55932;BME280;41837;55.700;37.984;2022-12-22T06:07:40;99173.63;;;1.52;100.00
55932;BME280;41837;55.700;37.984;2022-12-22T06:10:07;99176.19;;;1.54;100.00
55932;BME280;41837;55.700;37.984;2022-12-22T06:12:34;99178.69;;;1.58;100.00
55932;BME280;41837;55.700;37.984;2022-12-22T06:15:00;99171.13;;;1.47;100.00
55932;BME280;41837;55.700;37.984;2022-12-22T06:17:25;99172.69;;;1.58;100.00
55932;BME280;41837;55.700;37.984;2022-12-22T06:19:51;99179.09;;;1.30;100.00
55932;BME280;41837;55.700;37.984;2022-12-22T06:22:17;99173.03;;;1.36;100.00
55932;BME280;41837;55.700;37.984;2022-12-22T06:24:43;99170.50;;;1.32;100.00
55932;BME280;41837;55.700;37.984;2022-12-22T06:27:09;99169.66;;;1.31;100.00
55932;BME280;41837;55.700;37.984;2022-12-22T06:29:37;99170.47;;;1.35;100.00
55932;BME280;41837;55.700;37.984;2022-12-22T06:32:03;99172.13;;;1.39;100.00
55932;BME280;41837;55.700;37.984;2022-12-22T06:34:29;99178.19;;;1.35;100.00
55932;BME280;41837;55.700;37.984;2022-12-22T06:36:54;99180.72;;;1.38;100.00
55932;BME280;41837;55.700;37.984;2022-12-22T06:39:20;99184.16;;;1.37;100.00
55932;BME280;41837;55.700;37.984;2022-12-22T06:41:46;99183.19;;;1.44;100.00
55932;BME280;41837;55.700;37.984;2022-12-22T06:44:31;99175.59;;;1.36;100.00
55932;BME280;41837;55.700;37.984;2022-12-22T06:46:57;99178.19;;;1.36;100.00
55932;BME280;41837;55.700;37.984;2022-12-22T06:49:23;99184.09;;;1.43;100.00
55932;BME280;41837;55.700;37.984;2022-12-22T06:51:49;99185.44;;;1.65;100.00
55932;BME280;41837;55.700;37.984;2022-12-22T06:54:16;99181.63;;;1.90;100.00
55932;BME280;41837;55.700;37.984;2022-12-22T06:56:41;99174.13;;;1.76;100.00
55932;BME280;41837;55.700;37.984;2022-12-22T06:59:08;99180.03;;;1.81;100.00
55932;BME280;41837;55.700;37.984;2022-12-22T07:01:34;99170.50;;;1.88;100.00
55932;BME280;41837;55.700;37.984;2022-12-22T07:04:01;99173.91;;;1.88;100.00
55932;BME280;41837;55.700;37.984;2022-12-22T07:06:28;99171.22;;;1.94;100.00
55932;BME280;41837;55.700;37.984;2022-12-22T07:08:54;99174.47;;;2.07;100.00
55932;BME280;41837;55.700;37.984;2022-12-22T07:11:20;99182.41;;;1.93;100.00
55932;BME280;41837;55.700;37.984;2022-12-22T07:13:46;99182.53;;;1.87;100.00
55932;BME280;41837;55.700;37.984;2022-12-22T07:16:12;99180.78;;;1.88;100.00
55932;BME280;41837;55.700;37.984;2022-12-22T07:18:39;99180.78;;;1.89;100.00
55932;BME280;41837;55.700;37.984;2022-12-22T07:21:06;99182.44;;;1.92;100.00
55932;BME280;41837;55.700;37.984;2022-12-22T07:23:33;99181.16;;;1.64;100.00
55932;BME280;41837;55.700;37.984;2022-12-22T07:25:59;99191.47;;;1.64;100.00
55932;BME280;41837;55.700;37.984;2022-12-22T07:28:26;99193.72;;;1.86;100.00
55932;BME280;41837;55.700;37.984;2022-12-22T07:30:52;99190.63;;;1.64;100.00
55932;BME280;41837;55.700;37.984;2022-12-22T07:33:18;99184.59;;;1.66;100.00
55932;BME280;41837;55.700;37.984;2022-12-22T07:35:44;99181.06;;;1.71;100.00
55932;BME280;41837;55.700;37.984;2022-12-22T07:38:10;99183.75;;;1.63;100.00
55932;BME280;41837;55.700;37.984;2022-12-22T07:40:36;99187.19;;;1.65;100.00
55932;BME280;41837;55.700;37.984;2022-12-22T07:43:02;99191.53;;;1.61;100.00
55932;BME280;41837;55.700;37.984;2022-12-22T07:45:28;99188.78;;;1.72;100.00
55932;BME280;41837;55.700;37.984;2022-12-22T07:48:00;99189.41;;;1.86;100.00
55932;BME280;41837;55.700;37.984;2022-12-22T07:50:27;99188.81;;;1.69;100.00
55932;BME280;41837;55.700;37.984;2022-12-22T07:53:02;99189.66;;;1.71;100.00
55932;BME280;41837;55.700;37.984;2022-12-22T07:55:34;99186.25;;;1.69;100.00
55932;BME280;41837;55.700;37.984;2022-12-22T07:58:01;99178.16;;;1.91;100.00
55932;BME280;41837;55.700;37.984;2022-12-22T08:00:26;99178.28;;;1.83;100.00
55932;BME280;41837;55.700;37.984;2022-12-22T08:02:58;99181.63;;;1.90;100.00
55932;BME280;41837;55.700;37.984;2022-12-22T08:05:26;99182.63;;;1.81;100.00
55932;BME280;41837;55.700;37.984;2022-12-22T08:07:52;99185.88;;;1.92;100.00
55932;BME280;41837;55.700;37.984;2022-12-22T08:10:18;99191.34;;;1.74;100.00
55932;BME280;41837;55.700;37.984;2022-12-22T08:12:44;99175.59;;;1.91;100.00
55932;BME280;41837;55.700;37.984;2022-12-22T08:15:11;99179.06;;;1.88;100.00
55932;BME280;41837;55.700;37.984;2022-12-22T08:17:36;99182.50;;;1.90;100.00
55932;BME280;41837;55.700;37.984;2022-12-22T08:20:03;99177.50;;;1.79;100.00
55932;BME280;41837;55.700;37.984;2022-12-22T08:22:29;99178.25;;;1.86;100.00
55932;BME280;41837;55.700;37.984;2022-12-22T08:24:55;99182.56;;;1.85;100.00
55932;BME280;41837;55.700;37.984;2022-12-22T08:27:26;99187.84;;;1.76;100.00
55932;BME280;41837;55.700;37.984;2022-12-22T08:29:56;99186.78;;;1.88;100.00
55932;BME280;41837;55.700;37.984;2022-12-22T08:32:22;99193.88;;;1.77;100.00
55932;BME280;41837;55.700;37.984;2022-12-22T08:34:48;99180.13;;;1.75;100.00
55932;BME280;41837;55.700;37.984;2022-12-22T08:37:15;99189.56;;;1.77;100.00
55932;BME280;41837;55.700;37.984;2022-12-22T08:39:44;99188.50;;;1.89;100.00
55932;BME280;41837;55.700;37.984;2022-12-22T08:42:12;99187.59;;;1.92;100.00
55932;BME280;41837;55.700;37.984;2022-12-22T08:44:39;99185.88;;;1.92;100.00
55932;BME280;41837;55.700;37.984;2022-12-22T08:47:06;99190.34;;;1.82;100.00
55932;BME280;41837;55.700;37.984;2022-12-22T08:49:31;99183.31;;;1.92;100.00
55932;BME280;41837;55.700;37.984;2022-12-22T08:51:58;99172.06;;;1.95;100.00
55932;BME280;41837;55.700;37.984;2022-12-22T08:54:24;99167.94;;;1.86;100.00
55932;BME280;41837;55.700;37.984;2022-12-22T08:56:50;99177.53;;;1.76;100.00
55932;BME280;41837;55.700;37.984;2022-12-22T08:59:17;99172.34;;;1.79;100.00
55932;BME280;41837;55.700;37.984;2022-12-22T09:01:43;99166.16;;;1.88;100.00
55932;BME280;41837;55.700;37.984;2022-12-22T09:04:14;99172.03;;;1.98;100.00
55932;BME280;41837;55.700;37.984;2022-12-22T09:06:40;99172.09;;;1.93;100.00
55932;BME280;41837;55.700;37.984;2022-12-22T09:09:07;99176.53;;;1.85;100.00
55932;BME280;41837;55.700;37.984;2022-12-22T09:11:34;99170.16;;;2.08;100.00
55932;BME280;41837;55.700;37.984;2022-12-22T09:14:00;99173.44;;;2.16;100.00
55932;BME280;41837;55.700;37.984;2022-12-22T09:16:27;99173.44;;;2.16;100.00
55932;BME280;41837;55.700;37.984;2022-12-22T09:18:53;99179.56;;;2.09;100.00
55932;BME280;41837;55.700;37.984;2022-12-22T09:21:20;99182.44;;;1.92;100.00
55932;BME280;41837;55.700;37.984;2022-12-22T09:23:47;99185.63;;;2.08;100.00
55932;BME280;41837;55.700;37.984;2022-12-22T09:26:15;99183.84;;;2.10;100.00
55932;BME280;41837;55.700;37.984;2022-12-22T09:28:42;99184.66;;;2.12;100.00
55932;BME280;41837;55.700;37.984;2022-12-22T09:31:08;99185.59;;;2.09;100.00
55932;BME280;41837;55.700;37.984;2022-12-22T09:33:35;99184.84;;;2.02;100.00
55932;BME280;41837;55.700;37.984;2022-12-22T09:36:08;99191.72;;;2.02;100.00
55932;BME280;41837;55.700;37.984;2022-12-22T09:38:38;99188.22;;;2.06;100.00
55932;BME280;41837;55.700;37.984;2022-12-22T09:41:18;99187.47;;;1.99;100.00
55932;BME280;41837;55.700;37.984;2022-12-22T09:43:45;99186.97;;;2.27;100.00
55932;BME280;41837;55.700;37.984;2022-12-22T09:46:20;99173.13;;;2.33;100.00
55932;BME280;41837;55.700;37.984;2022-12-22T09:48:47;99178.22;;;2.36;100.00
55932;BME280;41837;55.700;37.984;2022-12-22T09:51:13;99176.88;;;2.16;100.00
55932;BME280;41837;55.700;37.984;2022-12-22T09:53:41;99183.38;;;2.36;100.00
55932;BME280;41837;55.700;37.984;2022-12-22T09:56:10;99182.00;;;2.18;100.00
55932;BME280;41837;55.700;37.984;2022-12-22T09:58:37;99189.81;;;2.12;100.00
55932;BME280;41837;55.700;37.984;2022-12-22T10:08:41;99193.59;;;1.94;100.00
55932;BME280;41837;55.700;37.984;2022-12-22T10:11:11;99196.09;;;1.97;100.00
55932;BME280;41837;55.700;37.984;2022-12-22T10:13:38;99202.78;;;2.09;100.00
55932;BME280;41837;55.700;37.984;2022-12-22T10:19:12;99202.94;;;1.99;100.00
55932;BME280;41837;55.700;37.984;2022-12-22T10:21:38;99201.38;;;1.91;100.00
55932;BME280;41837;55.700;37.984;2022-12-22T10:27:00;99205.69;;;1.90;100.00
55932;BME280;41837;55.700;37.984;2022-12-22T10:29:27;99197.09;;;1.90;100.00
55932;BME280;41837;55.700;37.984;2022-12-22T10:34:23;99198.91;;;1.83;100.00
55932;BME280;41837;55.700;37.984;2022-12-22T10:36:51;99205.69;;;1.90;100.00
55932;BME280;41837;55.700;37.984;2022-12-22T10:41:46;99194.97;;;2.12;100.00
55932;BME280;41837;55.700;37.984;2022-12-22T10:46:45;99198.78;;;1.91;100.00
55932;BME280;41837;55.700;37.984;2022-12-22T10:49:14;99196.91;;;2.00;100.00
55932;BME280;41837;55.700;37.984;2022-12-22T10:51:47;99188.56;;;1.84;100.00
55932;BME280;41837;55.700;37.984;2022-12-22T10:54:33;99190.09;;;1.96;100.00
55932;BME280;41837;55.700;37.984;2022-12-22T10:59:29;99190.78;;;2.08;100.00
55932;BME280;41837;55.700;37.984;2022-12-22T11:02:16;99201.38;;;1.91;100.00
55932;BME280;41837;55.700;37.984;2022-12-22T11:04:42;99206.47;;;1.95;100.00
55932;BME280;41837;55.700;37.984;2022-12-22T11:07:07;99208.47;;;1.76;100.00
55932;BME280;41837;55.700;37.984;2022-12-22T11:09:34;99207.47;;;1.85;100.00
55932;BME280;41837;55.700;37.984;2022-12-22T11:12:02;99205.09;;;1.73;100.00
55932;BME280;41837;55.700;37.984;2022-12-22T11:17:00;99212.81;;;1.73;100.00
55932;BME280;41837;55.700;37.984;2022-12-22T11:22:03;99206.16;;;1.58;100.00
55932;BME280;41837;55.700;37.984;2022-12-22T11:27:39;99206.03;;;1.68;100.00
55932;BME280;41837;55.700;37.984;2022-12-22T11:30:11;99211.00;;;1.78;100.00
55932;BME280;41837;55.700;37.984;2022-12-22T11:32:41;99223.91;;;1.78;100.00
55932;BME280;41837;55.700;37.984;2022-12-22T11:35:32;99223.81;;;1.84;100.00
55932;BME280;41837;55.700;37.984;2022-12-22T11:43:15;99216.94;;;1.84;100.00
55932;BME280;41837;55.700;37.984;2022-12-22T11:45:56;99215.88;;;1.96;100.00
55932;BME280;41837;55.700;37.984;2022-12-22T11:50:50;99225.44;;;1.90;100.00
55932;BME280;41837;55.700;37.984;2022-12-22T11:53:38;99231.69;;;1.75;100.00
55932;BME280;41837;55.700;37.984;2022-12-22T12:09:38;99237.69;;;1.75;100.00
55932;BME280;41837;55.700;37.984;2022-12-22T12:30:20;99256.66;;;1.71;100.00
55932;BME280;41837;55.700;37.984;2022-12-22T12:32:54;99254.19;;;1.65;100.00
55932;BME280;41837;55.700;37.984;2022-12-22T12:38:20;99251.25;;;1.86;100.00
55932;BME280;41837;55.700;37.984;2022-12-22T12:40:52;99260.06;;;1.73;100.00
55932;BME280;41837;55.700;37.984;2022-12-22T12:43:22;99265.38;;;1.62;100.00
55932;BME280;41837;55.700;37.984;2022-12-22T12:45:49;99265.25;;;1.70;100.00
55932;BME280;41837;55.700;37.984;2022-12-22T12:50:48;99264.69;;;1.51;100.00
55932;BME280;41837;55.700;37.984;2022-12-22T12:53:17;99265.72;;;1.38;100.00
55932;BME280;41837;55.700;37.984;2022-12-22T13:01:03;99268.78;;;1.63;100.00
55932;BME280;41837;55.700;37.984;2022-12-22T13:05:58;99272.34;;;1.54;100.00
55932;BME280;41837;55.700;37.984;2022-12-22T13:08:25;99274.03;;;1.57;100.00
55932;BME280;41837;55.700;37.984;2022-12-22T13:23:30;99283.56;;;1.50;100.00
55932;BME280;41837;55.700;37.984;2022-12-22T13:26:14;99274.09;;;1.52;100.00
55932;BME280;41837;55.700;37.984;2022-12-22T13:28:46;99273.19;;;1.56;100.00
55932;BME280;41837;55.700;37.984;2022-12-22T13:31:17;99276.44;;;1.69;100.00
55932;BME280;41837;55.700;37.984;2022-12-22T13:33:43;99266.38;;;1.51;100.00
55932;BME280;41837;55.700;37.984;2022-12-22T13:36:15;99273.28;;;1.50;100.00
55932;BME280;41837;55.700;37.984;2022-12-22T13:38:43;99282.72;;;1.49;100.00
55932;BME280;41837;55.700;37.984;2022-12-22T13:43:40;99268.09;;;1.53;100.00
55932;BME280;41837;55.700;37.984;2022-12-22T13:46:07;99271.75;;;1.35;100.00
55932;BME280;41837;55.700;37.984;2022-12-22T13:48:47;99278.53;;;1.41;100.00
55932;BME280;41837;55.700;37.984;2022-12-22T13:51:16;99278.53;;;1.41;100.00
55932;BME280;41837;55.700;37.984;2022-12-22T13:53:47;99275.66;;;1.62;100.00
55932;BME280;41837;55.700;37.984;2022-12-22T13:56:15;99278.69;;;1.28;100.00
55932;BME280;41837;55.700;37.984;2022-12-22T13:58:43;99286.41;;;1.32;100.00
55932;BME280;41837;55.700;37.984;2022-12-22T14:01:13;99287.81;;;1.54;100.00
55932;BME280;41837;55.700;37.984;2022-12-22T14:04:02;99286.88;;;1.61;100.00
55932;BME280;41837;55.700;37.984;2022-12-22T14:09:19;99291.13;;;1.62;100.00
55932;BME280;41837;55.700;37.984;2022-12-22T14:14:40;99299.75;;;1.61;100.00
55932;BME280;41837;55.700;37.984;2022-12-22T14:17:25;99304.13;;;1.56;100.00
55932;BME280;41837;55.700;37.984;2022-12-22T14:19:56;99306.78;;;1.47;100.00
55932;BME280;41837;55.700;37.984;2022-12-22T14:22:24;99305.16;;;1.43;100.00
55932;BME280;41837;55.700;37.984;2022-12-22T14:24:53;99311.94;;;1.47;100.00
55932;BME280;41837;55.700;37.984;2022-12-22T14:29:53;99307.63;;;1.49;100.00
55932;BME280;41837;55.700;37.984;2022-12-22T14:32:41;99298.91;;;1.58;100.00
55932;BME280;41837;55.700;37.984;2022-12-22T14:35:15;99302.25;;;1.64;100.00
55932;BME280;41837;55.700;37.984;2022-12-22T14:37:42;99302.94;;;1.79;100.00
55932;BME280;41837;55.700;37.984;2022-12-22T14:40:13;99287.59;;;1.68;100.00
55932;BME280;41837;55.700;37.984;2022-12-22T14:42:53;99294.75;;;1.47;100.00
55932;BME280;41837;55.700;37.984;2022-12-22T14:45:19;99286.97;;;1.54;100.00
55932;BME280;41837;55.700;37.984;2022-12-22T14:47:45;99289.59;;;1.47;100.00
55932;BME280;41837;55.700;37.984;2022-12-22T14:50:18;99289.59;;;1.49;100.00
55932;BME280;41837;55.700;37.984;2022-12-22T14:52:46;99294.78;;;1.46;100.00
55932;BME280;41837;55.700;37.984;2022-12-22T14:58:02;99287.81;;;1.53;100.00
55932;BME280;41837;55.700;37.984;2022-12-22T15:00:34;99291.22;;;1.56;100.00
55932;BME280;41837;55.700;37.984;2022-12-22T15:03:02;99290.25;;;1.65;100.00
55932;BME280;41837;55.700;37.984;2022-12-22T15:05:32;99297.09;;;1.66;100.00
55932;BME280;41837;55.700;37.984;2022-12-22T15:08:00;99303.50;;;1.36;100.00
55932;BME280;41837;55.700;37.984;2022-12-22T15:10:28;99310.34;;;1.40;100.00
55932;BME280;41837;55.700;37.984;2022-12-22T15:12:59;99313.63;;;1.51;100.00
55932;BME280;41837;55.700;37.984;2022-12-22T15:15:27;99306.13;;;1.34;100.00
55932;BME280;41837;55.700;37.984;2022-12-22T15:17:56;99327.38;;;1.50;100.00
55932;BME280;41837;55.700;37.984;2022-12-22T15:20:23;99331.81;;;1.36;100.00
55932;BME280;41837;55.700;37.984;2022-12-22T15:22:51;99337.06;;;1.29;100.00
55932;BME280;41837;55.700;37.984;2022-12-22T15:25:18;99348.13;;;1.38;100.00